createdAt,value
2018-06-25T00:01:21.684Z,98458.12
2018-06-25T00:03:50.321Z,98454.45
2018-06-25T00:06:19.099Z,98457.74
2018-06-25T00:08:47.655Z,98460.09
2018-06-25T00:11:16.199Z,98459.87
2018-06-25T00:13:45.374Z,98458.03
2018-06-25T00:16:14.352Z,98461.87
2018-06-25T00:18:43.002Z,98463.49
2018-06-25T00:21:11.621Z,98458.59
2018-06-25T00:23:40.202Z,98466.53
2018-06-25T00:26:08.797Z,98464.13
2018-06-25T00:28:37.625Z,98470.73
2018-06-25T00:31:06.571Z,98469.13
2018-06-25T00:33:35.839Z,98464.30
2018-06-25T00:36:04.375Z,98470.09
2018-06-25T00:38:32.939Z,98462.72
2018-06-25T00:41:01.500Z,98462.00
2018-06-25T00:43:30.031Z,98457.42
2018-06-25T00:45:58.624Z,98453.11
2018-06-25T00:48:27.248Z,98454.00
2018-06-25T00:50:55.852Z,98452.95
2018-06-25T00:53:24.584Z,98445.98
2018-06-25T00:55:53.282Z,98450.72
2018-06-25T00:58:22.445Z,98453.31
2018-06-25T01:00:51.750Z,98448.74
2018-06-25T01:03:20.955Z,98451.56
2018-06-25T01:05:49.665Z,98461.11
2018-06-25T01:08:18.451Z,98455.88
2018-06-25T01:10:47.720Z,98456.54
2018-06-25T01:13:16.266Z,98456.77
2018-06-25T01:15:45.094Z,98455.18
2018-06-25T01:18:13.669Z,98456.28
2018-06-25T01:20:42.540Z,98451.97
2018-06-25T01:23:11.166Z,98456.95
2018-06-25T01:25:39.700Z,98456.23
2018-06-25T01:28:08.292Z,98460.48
2018-06-25T01:30:37.160Z,98457.28
2018-06-25T01:33:06.026Z,98454.89
2018-06-25T01:35:34.670Z,98452.16
2018-06-25T01:38:03.382Z,98452.49
2018-06-25T01:40:32.690Z,98451.77
2018-06-25T01:43:01.251Z,98448.56
2018-06-25T01:45:29.927Z,98444.89
2018-06-25T01:47:58.536Z,98445.77
2018-06-25T01:50:27.569Z,98449.86
2018-06-25T01:52:56.351Z,98444.16
2018-06-25T01:55:25.038Z,98454.44
2018-06-25T01:57:53.731Z,98454.44
2018-06-25T02:00:22.351Z,98452.52
2018-06-25T02:02:51.657Z,98452.26
2018-06-25T02:05:20.704Z,98452.12
2018-06-25T02:07:49.387Z,98449.88
2018-06-25T02:10:18.772Z,98454.20
2018-06-25T02:12:47.495Z,98450.77
2018-06-25T02:15:16.416Z,98461.83
2018-06-25T02:17:45.838Z,98457.82
2018-06-25T02:20:14.547Z,98454.87
2018-06-25T02:22:43.387Z,98456.45
2018-06-25T02:25:13.077Z,98456.45
2018-06-25T02:27:41.727Z,98461.58
2018-06-25T02:30:11.092Z,98464.64
2018-06-25T02:32:41.369Z,98463.27
2018-06-25T02:35:09.983Z,98472.48
2018-06-25T02:37:38.696Z,98463.91
2018-06-25T02:40:07.916Z,98465.27
2018-06-25T02:42:36.828Z,98468.80
2018-06-25T02:45:06.513Z,98464.71
2018-06-25T02:47:35.162Z,98466.41
2018-06-25T02:50:03.968Z,98465.27
2018-06-25T02:52:33.109Z,98469.13
2018-06-25T02:55:02.206Z,98467.77
2018-06-25T02:57:30.850Z,98463.13
2018-06-25T03:00:00.369Z,98463.20
2018-06-25T03:02:29.050Z,98456.80
2018-06-25T03:04:58.168Z,98461.23
2018-06-25T03:07:26.981Z,98460.27
2018-06-25T03:09:55.592Z,98457.73
2018-06-25T03:12:24.307Z,98461.34
2018-06-25T03:14:53.061Z,98459.80
2018-06-25T03:17:22.422Z,98468.52
2018-06-25T03:19:51.735Z,98468.52
2018-06-25T03:22:20.671Z,98468.05
2018-06-25T03:24:49.320Z,98463.95
2018-06-25T03:27:18.337Z,98471.91
2018-06-25T03:29:47.051Z,98478.87
2018-06-25T03:32:15.561Z,98477.65
2018-06-25T03:34:44.536Z,98486.88
2018-06-25T03:37:13.781Z,98480.84
2018-06-25T03:39:42.273Z,98490.84
2018-06-25T03:42:11.036Z,98492.63
2018-06-25T03:44:39.577Z,98496.31
2018-06-25T03:47:08.358Z,98500.17
2018-06-25T03:49:37.063Z,98495.12
2018-06-25T03:52:05.718Z,98503.84
2018-06-25T03:54:34.391Z,98503.77
2018-06-25T03:57:03.062Z,98501.25
2018-06-25T03:59:31.671Z,98495.62
2018-06-25T04:02:00.574Z,98505.84
2018-06-25T04:04:29.688Z,98507.11
2018-06-25T04:06:58.299Z,98506.36
2018-06-25T04:09:27.167Z,98514.20
2018-06-25T04:11:55.712Z,98508.63
2018-06-25T04:14:25.348Z,98516.80
2018-06-25T04:16:53.988Z,98519.45
2018-06-25T04:19:23.362Z,98512.78
2018-06-25T04:21:52.011Z,98523.53
2018-06-25T04:24:21.474Z,98517.08
2018-06-25T04:26:50.111Z,98516.95
2018-06-25T04:29:18.953Z,98517.66
2018-06-25T04:31:47.672Z,98516.90
2018-06-25T04:34:16.411Z,98520.52
2018-06-25T04:36:45.789Z,98524.53
2018-06-25T04:39:14.512Z,98522.45
2018-06-25T04:41:43.207Z,98526.62
2018-06-25T04:44:11.871Z,98526.81
2018-06-25T04:46:40.759Z,98531.46
2018-06-25T04:49:10.021Z,98539.80
2018-06-25T04:51:38.952Z,98535.41
2018-06-25T04:54:07.592Z,98543.52
2018-06-25T04:56:36.256Z,98546.47
2018-06-25T04:59:05.763Z,98540.17
2018-06-25T05:01:34.462Z,98556.45
2018-06-25T05:04:03.270Z,98560.47
2018-06-25T05:06:31.957Z,98552.91
2018-06-25T05:09:00.767Z,98559.73
2018-06-25T05:11:29.556Z,98559.84
2018-06-25T05:13:58.227Z,98559.84
2018-06-25T05:16:27.162Z,98557.19
2018-06-25T05:18:55.945Z,98556.71
2018-06-25T05:21:25.127Z,98559.44
2018-06-25T05:23:53.848Z,98561.35
2018-06-25T05:26:22.642Z,98560.72
2018-06-25T05:28:51.814Z,98568.64
2018-06-25T05:31:20.782Z,98564.08
2018-06-25T05:33:49.436Z,98569.31
2018-06-25T05:36:18.352Z,98573.89
2018-06-25T05:38:47.207Z,98581.25
2018-06-25T05:41:16.007Z,98581.80
2018-06-25T05:43:44.643Z,98579.62
2018-06-25T05:46:13.328Z,98585.89
2018-06-25T05:48:42.080Z,98591.36
2018-06-25T05:51:10.991Z,98591.91
2018-06-25T05:53:40.112Z,98592.88
2018-06-25T05:56:08.841Z,98596.41
2018-06-25T05:58:38.238Z,98610.45
2018-06-25T06:01:07.819Z,98599.88
2018-06-25T06:03:36.821Z,98597.30
2018-06-25T06:06:06.021Z,98600.20
2018-06-25T06:08:35.521Z,98599.06
2018-06-25T06:11:04.437Z,98601.16
2018-06-25T06:13:33.272Z,98599.14
2018-06-25T06:16:01.944Z,98603.55
2018-06-25T06:18:31.217Z,98606.68
2018-06-25T06:21:00.262Z,98607.88
2018-06-25T06:23:29.224Z,98603.02
2018-06-25T06:25:57.825Z,98609.44
2018-06-25T06:28:27.059Z,98612.67
2018-06-25T06:30:56.344Z,98615.41
2018-06-25T06:33:25.374Z,98616.23
2018-06-25T06:35:54.220Z,98620.07
2018-06-25T06:38:22.922Z,98616.75
2018-06-25T06:40:52.297Z,98619.17
2018-06-25T06:43:21.196Z,98617.33
2018-06-25T06:45:49.968Z,98617.55
2018-06-25T06:48:18.839Z,98615.74
2018-06-25T06:50:47.519Z,98614.53
2018-06-25T06:53:16.289Z,98620.44
2018-06-25T06:55:45.533Z,98621.29
2018-06-25T06:58:14.143Z,98619.00
2018-06-25T07:00:43.436Z,98622.69
2018-06-25T07:03:12.334Z,98621.16
2018-06-25T07:05:40.917Z,98625.16
2018-06-25T07:08:09.757Z,98625.70
2018-06-25T07:10:39.107Z,98628.25
2018-06-25T07:13:08.748Z,98627.27
2018-06-25T07:15:37.399Z,98630.16
2018-06-25T07:18:07.190Z,98631.92
2018-06-25T07:20:35.833Z,98625.03
2018-06-25T07:23:05.002Z,98632.22
2018-06-25T07:25:34.363Z,98627.42
2018-06-25T07:28:04.320Z,98633.02
2018-06-25T07:30:32.999Z,98630.19
2018-06-25T07:33:01.928Z,98626.77
2018-06-25T07:35:30.615Z,98625.76
2018-06-25T07:37:59.439Z,98627.26
2018-06-25T07:40:28.067Z,98628.06
2018-06-25T07:42:56.903Z,98626.77
2018-06-25T07:45:25.705Z,98632.31
2018-06-25T07:47:54.364Z,98630.28
2018-06-25T07:50:23.854Z,98627.11
2018-06-25T07:52:52.711Z,98630.05
2018-06-25T07:55:21.557Z,98627.56
2018-06-25T07:57:50.220Z,98630.28
2018-06-25T08:00:19.825Z,98624.61
2018-06-25T08:02:48.358Z,98627.36
2018-06-25T08:05:17.214Z,98629.05
2018-06-25T08:07:45.930Z,98635.31
2018-06-25T08:10:14.737Z,98632.61
2018-06-25T08:12:43.742Z,98634.73
2018-06-25T08:15:12.528Z,98635.98
2018-06-25T08:17:42.165Z,98636.12
2018-06-25T08:20:10.885Z,98634.44
2018-06-25T08:22:39.657Z,98638.34
2018-06-25T08:25:08.519Z,98640.55
2018-06-25T08:27:38.079Z,98643.51
2018-06-25T08:30:06.931Z,98644.26
2018-06-25T08:32:35.708Z,98649.19
2018-06-25T08:35:05.733Z,98654.92
2018-06-25T08:37:34.992Z,98656.20
2018-06-25T08:40:03.744Z,98663.39
2018-06-25T08:42:32.469Z,98666.84
2018-06-25T08:45:01.076Z,98663.77
2018-06-25T08:47:29.814Z,98667.20
2018-06-25T08:49:59.570Z,98671.00
2018-06-25T08:52:28.943Z,98667.36
2018-06-25T08:54:57.604Z,98664.81
2018-06-25T08:57:26.703Z,98672.09
2018-06-25T08:59:55.399Z,98674.17
2018-06-25T09:02:24.119Z,98675.64
2018-06-25T09:04:52.989Z,98673.13
2018-06-25T09:07:21.680Z,98674.30
2018-06-25T09:09:50.946Z,98672.01
2018-06-25T09:12:19.844Z,98671.09
2018-06-25T09:14:48.454Z,98680.55
2018-06-25T09:17:17.144Z,98681.48
2018-06-25T09:19:45.807Z,98679.58
2018-06-25T09:22:14.702Z,98686.41
2018-06-25T09:24:43.461Z,98681.40
2018-06-25T09:27:12.095Z,98673.59
2018-06-25T09:29:40.704Z,98674.87
2018-06-25T09:32:10.360Z,98673.30
2018-06-25T09:34:44.218Z,98684.38
2018-06-25T09:37:12.964Z,98679.91
2018-06-25T09:39:41.795Z,98680.06
2018-06-25T09:42:10.549Z,98684.86
2018-06-25T09:44:39.182Z,98679.94
2018-06-25T09:47:07.889Z,98687.63
2018-06-25T09:49:36.589Z,98684.59
2018-06-25T09:52:06.372Z,98692.02
2018-06-25T09:54:35.020Z,98691.27
2018-06-25T09:57:04.241Z,98692.30
2018-06-25T09:59:33.653Z,98699.37
2018-06-25T10:02:02.538Z,98697.03
2018-06-25T10:04:32.039Z,98696.23
2018-06-25T10:07:01.587Z,98700.78
2018-06-25T10:09:30.311Z,98707.27
2018-06-25T10:11:59.249Z,98703.92
2018-06-25T10:14:27.821Z,98695.02
2018-06-25T10:16:56.638Z,98697.41
2018-06-25T10:19:25.227Z,98697.22
2018-06-25T10:21:54.401Z,98699.20
2018-06-25T10:24:23.151Z,98699.47
2018-06-25T10:26:51.857Z,98695.25
2018-06-25T10:29:21.080Z,98705.45
2018-06-25T10:31:49.746Z,98704.42
2018-06-25T10:34:18.516Z,98699.90
2018-06-25T10:36:47.133Z,98695.56
2018-06-25T10:39:16.049Z,98710.84
2018-06-25T10:41:45.315Z,98709.05
2018-06-25T10:44:14.337Z,98699.43
2018-06-25T10:46:43.719Z,98702.39
2018-06-25T10:49:12.534Z,98696.45
2018-06-25T10:51:41.404Z,98706.81
2018-06-25T10:54:10.784Z,98697.41
2018-06-25T10:56:39.394Z,98697.92
2018-06-25T10:59:08.179Z,98700.25
2018-06-25T11:01:37.054Z,98698.69
2018-06-25T11:04:06.155Z,98694.69
2018-06-25T11:06:35.544Z,98694.12
2018-06-25T11:09:06.655Z,98687.74
2018-06-25T11:11:35.564Z,98689.85
2018-06-25T11:14:05.078Z,98688.30
2018-06-25T11:16:33.776Z,98682.34
2018-06-25T11:19:02.554Z,98668.33
2018-06-25T11:21:31.964Z,98687.49
2018-06-25T11:24:00.766Z,98691.97
2018-06-25T11:26:29.355Z,98686.16
2018-06-25T11:28:58.271Z,98696.08
2018-06-25T11:31:26.925Z,98688.81
2018-06-25T11:33:56.056Z,98690.48
2018-06-25T11:36:25.835Z,98694.50
2018-06-25T11:38:54.466Z,98688.43
2018-06-25T11:41:23.185Z,98689.43
2018-06-25T11:43:51.970Z,98673.27
2018-06-25T11:46:20.741Z,98681.17
2018-06-25T11:48:49.495Z,98679.95
2018-06-25T11:51:18.051Z,98680.98
2018-06-25T11:53:46.854Z,98676.22
2018-06-25T11:56:16.416Z,98672.93
2018-06-25T11:58:45.256Z,98667.97
2018-06-25T12:01:14.221Z,98666.82
2018-06-25T12:03:43.010Z,98673.08
2018-06-25T12:06:12.541Z,98669.39
2018-06-25T12:08:41.279Z,98662.45
2018-06-25T12:11:09.980Z,98661.27
2018-06-25T12:13:38.836Z,98663.71
2018-06-25T12:16:07.684Z,98663.80
2018-06-25T12:18:37.336Z,98652.46
2018-06-25T12:21:05.986Z,98660.57
2018-06-25T12:23:34.776Z,98656.12
2018-06-25T12:26:03.785Z,98657.88
2018-06-25T12:28:33.550Z,98651.53
2018-06-25T12:31:02.312Z,98652.66
2018-06-25T12:33:31.058Z,98651.80
2018-06-25T12:35:59.751Z,98648.91
2018-06-25T12:38:29.214Z,98653.36
2018-06-25T12:40:58.194Z,98642.52
2018-06-25T12:43:27.526Z,98642.05
2018-06-25T12:45:56.876Z,98650.66
2018-06-25T12:48:25.789Z,98641.88
2018-06-25T12:50:55.016Z,98646.34
2018-06-25T12:53:24.703Z,98648.97
2018-06-25T12:55:53.477Z,98646.05
2018-06-25T12:58:22.310Z,98652.14
2018-06-25T13:00:51.080Z,98646.80
2018-06-25T13:03:19.772Z,98652.36
2018-06-25T13:05:48.377Z,98649.02
2018-06-25T13:08:17.290Z,98648.52
2018-06-25T13:10:46.767Z,98646.61
2018-06-25T13:13:16.266Z,98648.64
2018-06-25T13:15:45.284Z,98649.48
2018-06-25T13:18:14.132Z,98654.14
2018-06-25T13:20:42.800Z,98655.44
2018-06-25T13:23:11.961Z,98653.25
2018-06-25T13:25:40.804Z,98653.14
2018-06-25T13:28:09.505Z,98662.05
2018-06-25T13:30:38.324Z,98657.45
2018-06-25T13:33:07.831Z,98652.92
2018-06-25T13:35:36.934Z,98660.64
2018-06-25T13:38:06.401Z,98654.72
2018-06-25T13:40:35.215Z,98650.70
2018-06-25T13:43:03.920Z,98650.94
2018-06-25T13:45:32.814Z,98650.96
2018-06-25T13:48:01.383Z,98646.79
2018-06-25T13:50:30.125Z,98648.78
2018-06-25T13:52:58.984Z,98648.95
2018-06-25T13:55:28.544Z,98643.73
2018-06-25T13:57:57.816Z,98642.97
2018-06-25T14:00:26.986Z,98644.73
2018-06-25T14:02:55.820Z,98648.33
2018-06-25T14:05:24.810Z,98644.37
2018-06-25T14:07:54.163Z,98643.16
2018-06-25T14:10:22.896Z,98639.36
2018-06-25T14:12:51.493Z,98630.95
2018-06-25T14:15:20.992Z,98639.63
2018-06-25T14:17:50.404Z,98628.13
2018-06-25T14:20:19.353Z,98638.05
2018-06-25T14:22:48.789Z,98633.24
2018-06-25T14:25:17.450Z,98628.68
2018-06-25T14:27:51.420Z,98633.16
2018-06-25T14:30:25.561Z,98622.69
2018-06-25T14:33:09.752Z,98625.61
2018-06-25T14:35:38.767Z,98622.92
2018-06-25T14:38:08.099Z,98623.41
2018-06-25T14:40:37.726Z,98619.98
2018-06-25T14:43:06.443Z,98610.76
2018-06-25T14:45:35.692Z,98607.75
2018-06-25T14:48:06.154Z,98613.09
2018-06-25T14:50:35.217Z,98612.27
2018-06-25T14:53:04.285Z,98618.91
2018-06-25T14:55:32.991Z,98616.00
2018-06-25T14:58:01.641Z,98614.84
2018-06-25T15:00:30.303Z,98610.38
2018-06-25T15:02:59.036Z,98614.84
2018-06-25T15:05:28.648Z,98611.95
2018-06-25T15:07:57.475Z,98608.96
2018-06-25T15:10:26.181Z,98602.69
2018-06-25T15:12:54.967Z,98603.59
2018-06-25T15:15:24.728Z,98605.73
2018-06-25T15:17:53.477Z,98597.70
2018-06-25T15:20:22.201Z,98591.28
2018-06-25T15:22:51.786Z,98598.63
2018-06-25T15:25:20.461Z,98593.12
2018-06-25T15:27:49.397Z,98596.22
2018-06-25T15:30:27.811Z,98586.03
2018-06-25T15:32:56.588Z,98588.16
2018-06-25T15:35:25.390Z,98584.65
2018-06-25T15:37:54.510Z,98584.98
2018-06-25T15:40:23.543Z,98586.02
2018-06-25T15:42:52.212Z,98581.94
2018-06-25T15:45:21.036Z,98587.91
2018-06-25T15:47:49.790Z,98585.53
2018-06-25T15:50:18.449Z,98586.62
2018-06-25T15:52:47.074Z,98586.94
2018-06-25T15:55:15.822Z,98580.95
2018-06-25T15:57:44.605Z,98587.58
2018-06-25T16:00:13.716Z,98584.70
2018-06-25T16:02:43.222Z,98588.30
2018-06-25T16:05:12.434Z,98589.80
2018-06-25T16:07:41.221Z,98576.76
2018-06-25T16:10:10.015Z,98574.38
2018-06-25T16:12:38.640Z,98578.52
2018-06-25T16:15:07.537Z,98573.55
2018-06-25T16:17:36.907Z,98576.66
2018-06-25T16:20:05.729Z,98576.94
2018-06-25T16:22:34.360Z,98573.88
2018-06-25T16:25:03.580Z,98567.66
2018-06-25T16:27:32.297Z,98571.70
2018-06-25T16:30:01.036Z,98571.88
2018-06-25T16:32:30.471Z,98570.48
2018-06-25T16:34:59.532Z,98573.61
2018-06-25T16:37:29.148Z,98571.01
2018-06-25T16:39:58.113Z,98578.48
2018-06-25T16:42:26.848Z,98578.29
2018-06-25T16:44:55.688Z,98581.70
2018-06-25T16:47:24.709Z,98581.92
2018-06-25T16:49:53.421Z,98583.96
2018-06-25T16:52:22.353Z,98584.89
2018-06-25T16:54:51.138Z,98578.28
2018-06-25T16:57:19.807Z,98580.81
2018-06-25T16:59:48.631Z,98574.50
2018-06-25T17:02:17.423Z,98574.81
2018-06-25T17:04:45.957Z,98582.42
2018-06-25T17:07:14.746Z,98582.48
2018-06-25T17:09:43.446Z,98574.78
2018-06-25T17:12:12.506Z,98574.50
2018-06-25T17:14:41.218Z,98587.48
2018-06-25T17:17:09.915Z,98585.38
2018-06-25T17:19:38.660Z,98590.41
2018-06-25T17:22:07.630Z,98588.88
2018-06-25T17:24:36.361Z,98592.36
2018-06-25T17:27:05.401Z,98590.98
2018-06-25T17:29:34.311Z,98587.27
2018-06-25T17:32:04.058Z,98597.45
2018-06-25T17:34:32.688Z,98596.06
2018-06-25T17:37:01.607Z,98601.29
2018-06-25T17:39:30.361Z,98600.20
2018-06-25T17:41:59.892Z,98599.27
2018-06-25T17:44:28.652Z,98594.26
2018-06-25T17:46:57.553Z,98589.98
2018-06-25T17:49:26.311Z,98591.28
2018-06-25T17:51:55.168Z,98590.67
2018-06-25T17:54:24.581Z,98596.27
2018-06-25T17:56:53.213Z,98597.97
2018-06-25T17:59:22.028Z,98603.53
2018-06-25T18:01:50.662Z,98605.84
2018-06-25T18:04:19.244Z,98602.16
2018-06-25T18:06:48.298Z,98602.73
2018-06-25T18:09:17.054Z,98606.28
2018-06-25T18:11:45.898Z,98603.97
2018-06-25T18:14:14.740Z,98615.86
2018-06-25T18:16:43.394Z,98609.42
2018-06-25T18:19:12.142Z,98610.33
2018-06-25T18:21:40.848Z,98602.20
2018-06-25T18:24:09.668Z,98605.89
2018-06-25T18:26:38.548Z,98610.36
2018-06-25T18:29:07.435Z,98612.02
2018-06-25T18:31:36.482Z,98612.52
2018-06-25T18:34:05.091Z,98613.09
2018-06-25T18:36:33.872Z,98615.97
2018-06-25T18:39:03.407Z,98614.05
2018-06-25T18:41:32.208Z,98608.97
2018-06-25T18:44:01.529Z,98608.88
2018-06-25T18:46:30.276Z,98610.99
2018-06-25T18:48:59.161Z,98613.70
2018-06-25T18:51:27.928Z,98605.14
2018-06-25T18:53:56.851Z,98607.69
2018-06-25T18:56:25.602Z,98609.11
2018-06-25T18:58:54.514Z,98611.45
2018-06-25T19:01:23.302Z,98619.82
2018-06-25T19:03:52.153Z,98621.27
2018-06-25T19:06:20.849Z,98620.27
2018-06-25T19:08:49.573Z,98623.17
2018-06-25T19:11:18.387Z,98628.03
2018-06-25T19:13:47.132Z,98627.83
2018-06-25T19:16:15.883Z,98629.06
2018-06-25T19:18:44.983Z,98629.61
2018-06-25T19:21:13.957Z,98638.05
2018-06-25T19:23:43.382Z,98636.31
2018-06-25T19:26:12.048Z,98642.33
2018-06-25T19:28:40.871Z,98640.40
2018-06-25T19:31:10.024Z,98652.91
2018-06-25T19:33:39.019Z,98649.78
2018-06-25T19:36:07.771Z,98653.91
2018-06-25T19:38:36.635Z,98649.27
2018-06-25T19:41:05.422Z,98653.07
2018-06-25T19:43:34.162Z,98665.28
2018-06-25T19:46:03.256Z,98668.13
2018-06-25T19:48:31.902Z,98667.42
2018-06-25T19:51:00.753Z,98672.58
2018-06-25T19:53:29.756Z,98673.51
2018-06-25T19:55:58.428Z,98674.91
2018-06-25T19:58:27.336Z,98674.80
2018-06-25T20:00:56.188Z,98679.22
2018-06-25T20:03:24.934Z,98672.27
2018-06-25T20:05:53.794Z,98677.66
2018-06-25T20:08:22.423Z,98676.11
2018-06-25T20:10:51.403Z,98679.73
2018-06-25T20:13:20.181Z,98683.42
2018-06-25T20:15:49.204Z,98693.06
2018-06-25T20:18:17.867Z,98688.08
2018-06-25T20:20:46.828Z,98683.72
2018-06-25T20:23:15.962Z,98686.62
2018-06-25T20:25:44.679Z,98684.59
2018-06-25T20:28:13.405Z,98686.96
2018-06-25T20:30:42.423Z,98689.86
2018-06-25T20:33:11.165Z,98683.80
2018-06-25T20:35:39.752Z,98692.55
2018-06-25T20:38:10.293Z,98698.91
2018-06-25T20:40:39.270Z,98694.30
2018-06-25T20:43:08.693Z,98691.25
2018-06-25T20:45:37.971Z,98692.39
2018-06-25T20:48:07.065Z,98693.78
2018-06-25T20:50:35.748Z,98703.83
2018-06-25T20:53:04.543Z,98706.17
2018-06-25T20:55:33.146Z,98703.80
2018-06-25T20:58:01.802Z,98699.43
2018-06-25T21:00:30.918Z,98707.48
2018-06-25T21:02:59.960Z,98700.30
2018-06-25T21:05:28.728Z,98707.22
2018-06-25T21:07:57.708Z,98703.45
2018-06-25T21:10:26.649Z,98710.20
2018-06-25T21:12:55.353Z,98710.38
2018-06-25T21:15:24.677Z,98711.79
2018-06-25T21:17:53.457Z,98714.67
2018-06-25T21:20:22.292Z,98716.09
2018-06-25T21:22:51.356Z,98723.48
2018-06-25T21:25:20.514Z,98723.18
2018-06-25T21:27:49.897Z,98716.44
2018-06-25T21:30:19.117Z,98713.09
2018-06-25T21:32:48.237Z,98712.43
2018-06-25T21:35:17.322Z,98709.53
2018-06-25T21:37:46.712Z,98715.88
2018-06-25T21:40:16.031Z,98715.48
2018-06-25T21:42:45.103Z,98710.41
2018-06-25T21:45:14.011Z,98718.38
2018-06-25T21:47:42.774Z,98714.89
2018-06-25T21:50:11.734Z,98725.31
2018-06-25T21:52:41.108Z,98723.91
2018-06-25T21:55:09.943Z,98726.06
2018-06-25T21:57:38.709Z,98726.06
2018-06-25T22:00:11.139Z,98727.19
2018-06-25T22:02:39.998Z,98732.17
2018-06-25T22:05:09.100Z,98727.78
2018-06-25T22:07:38.366Z,98730.59
2018-06-25T22:10:08.535Z,98725.46
2018-06-25T22:12:37.857Z,98729.12
2018-06-25T22:15:07.595Z,98727.92
2018-06-25T22:17:38.499Z,98723.62
2018-06-25T22:20:07.352Z,98725.06
2018-06-25T22:22:36.531Z,98732.23
2018-06-25T22:25:05.787Z,98732.52
2018-06-25T22:27:35.067Z,98735.23
2018-06-25T22:30:04.497Z,98732.05
2018-06-25T22:32:33.473Z,98725.95
2018-06-25T22:35:03.707Z,98725.02
2018-06-25T22:37:34.117Z,98724.59
2018-06-25T22:40:03.062Z,98725.44
2018-06-25T22:42:33.548Z,98732.91
2018-06-25T22:45:02.977Z,98722.74
2018-06-25T22:47:31.658Z,98726.92
2018-06-25T22:50:00.820Z,98717.28
2018-06-25T22:52:30.203Z,98726.55
2018-06-25T22:54:59.274Z,98722.75
2018-06-25T22:57:28.124Z,98722.54
2018-06-25T22:59:56.817Z,98723.05
2018-06-25T23:02:25.414Z,98724.74
2018-06-25T23:04:54.173Z,98724.74
2018-06-25T23:07:22.844Z,98720.56
2018-06-25T23:13:21.829Z,98722.29
2018-06-25T23:15:50.798Z,98724.12
2018-06-25T23:18:19.529Z,98726.56
2018-06-25T23:20:49.058Z,98717.08
2018-06-25T23:23:18.409Z,98724.19
2018-06-25T23:25:47.263Z,98719.94
2018-06-25T23:28:15.925Z,98721.17
2018-06-25T23:30:44.728Z,98721.51
2018-06-25T23:33:13.456Z,98718.86
2018-06-25T23:35:42.149Z,98720.59
2018-06-25T23:38:11.698Z,98723.91
2018-06-25T23:40:41.018Z,98728.30
2018-06-25T23:43:10.307Z,98730.19
2018-06-25T23:45:38.999Z,98727.30
2018-06-25T23:48:07.619Z,98725.34
2018-06-25T23:50:36.214Z,98726.18
2018-06-25T23:53:05.165Z,98735.72
2018-06-25T23:55:34.412Z,98735.52
2018-06-25T23:58:03.284Z,98737.17
